Terminal Aerodrome Forecast
Issued by NWS

Home | Current Version | Previous Version | Text Only | Print | Product List | Glossary On
Versions: 1 2 3 4 5 6 7 8 9 10 11 12 13 14 15 16 17 18 19 20 21 22 23 24 25 26 27 28 29 30 31 32 33 34 35 36
000
FTUS46 KPQR 291120
TAFONP
TAF
KONP 291120Z 2912/3012 34003KT P6SM OVC007
     FM291700 36008KT P6SM SCT007
     FM291900 35015G25KT P6SM FEW007
     FM300400 35010KT P6SM BKN005
     FM300800 35005KT P6SM OVC007=

USA.gov is the U.S. government's official web portal to all federal, state and local government web resources and services.